Time;durP1;ratioP1;P1;durP2;ratioP2;P2;SDS_P1;SDS_P2;PMS_P1;PMS_P2;Temp;Humidity;BMP_temperature;BMP_pressure;BME280_temperature;BME280_humidity;BME280_pressure;Samples;Min_cycle;Max_cycle;Signal;HPM_P1;HPM_P2
2021/03/12 00:02:10;;;;;;;5.70;0.80;;;;;;;5.67;100.00;99108.22;5249466;28;20039;-81
2021/03/12 00:04:41;;;;;;;6.03;1.00;;;;;;;5.74;100.00;99109.66;5248100;28;20563;-81
2021/03/12 00:07:12;;;;;;;5.60;1.00;;;;;;;5.75;100.00;99113.09;5256548;28;20108;-80
2021/03/12 00:09:42;;;;;;;5.28;0.77;;;;;;;5.83;100.00;99105.88;5246424;28;20036;-80
2021/03/12 00:12:12;;;;;;;5.95;0.90;;;;;;;5.75;100.00;99110.50;5247544;28;20036;-80
2021/03/12 00:14:43;;;;;;;3.50;0.75;;;;;;;5.75;100.00;99113.09;5245268;28;20455;-81
2021/03/12 00:17:13;;;;;;;4.22;1.10;;;;;;;5.76;100.00;99117.38;5241947;28;20037;-80
2021/03/12 00:19:43;;;;;;;4.35;1.00;;;;;;;5.77;100.00;99113.88;5239103;28;20029;-80
2021/03/12 00:22:13;;;;;;;3.80;0.82;;;;;;;5.82;100.00;99119.75;5243966;28;20035;-80
2021/03/12 00:24:45;;;;;;;6.43;1.08;;;;;;;5.70;100.00;99120.19;5240590;28;20056;-80
2021/03/12 00:27:16;;;;;;;5.97;1.20;;;;;;;5.75;100.00;99131.25;5239443;28;20028;-80
2021/03/12 00:29:46;;;;;;;4.60;0.85;;;;;;;5.72;100.00;99132.19;5241321;28;20099;-80
2021/03/12 00:32:16;;;;;;;4.68;1.00;;;;;;;5.85;100.00;99155.91;5240472;28;20070;-79
2021/03/12 00:34:46;;;;;;;3.00;0.75;;;;;;;5.92;100.00;99155.59;5247375;28;20107;-79
2021/03/12 00:37:17;;;;;;;4.43;1.15;;;;;;;5.93;100.00;99165.06;5250057;28;20094;-79
2021/03/12 00:39:47;;;;;;;3.60;1.02;;;;;;;5.97;100.00;99163.22;5243910;28;20063;-80
2021/03/12 00:42:17;;;;;;;7.97;1.20;;;;;;;5.90;100.00;99172.16;5242840;28;20086;-80
2021/03/12 00:44:48;;;;;;;5.57;1.00;;;;;;;5.99;100.00;99171.75;5242556;28;20056;-80
2021/03/12 00:47:18;;;;;;;5.38;1.20;;;;;;;5.93;100.00;99180.63;5242633;28;20048;-80
2021/03/12 00:49:48;;;;;;;5.40;1.10;;;;;;;5.96;100.00;99166.72;5245601;28;20562;-81
2021/03/12 00:52:18;;;;;;;4.47;1.05;;;;;;;5.97;100.00;99183.94;5246352;28;20036;-80
2021/03/12 00:54:49;;;;;;;8.43;1.85;;;;;;;5.98;100.00;99181.31;5245941;28;20021;-80
2021/03/12 00:57:19;;;;;;;7.13;1.42;;;;;;;5.84;100.00;99183.59;5249979;28;20097;-80
2021/03/12 00:59:49;;;;;;;6.07;1.33;;;;;;;5.73;100.00;99177.94;5254366;28;20082;-80
2021/03/12 01:02:20;;;;;;;5.97;1.38;;;;;;;5.84;100.00;99164.59;5248917;28;20086;-80
2021/03/12 01:04:50;;;;;;;8.23;1.30;;;;;;;5.73;100.00;99161.56;5241293;28;20025;-80
2021/03/12 01:07:20;;;;;;;6.18;1.30;;;;;;;5.84;100.00;99157.66;5243283;28;20287;-81
2021/03/12 01:09:51;;;;;;;6.03;1.10;;;;;;;5.74;100.00;99156.28;5242967;28;20054;-80
2021/03/12 01:12:21;;;;;;;5.50;1.00;;;;;;;5.88;100.00;99154.03;5251823;28;20025;-81
2021/03/12 01:14:51;;;;;;;5.22;1.13;;;;;;;5.78;100.00;99150.13;5248784;28;20039;-81
2021/03/12 01:17:21;;;;;;;5.22;1.33;;;;;;;5.78;100.00;99151.84;5241329;28;20052;-80
2021/03/12 01:19:53;;;;;;;5.07;1.00;;;;;;;5.87;100.00;99161.88;5246317;28;20015;-80
2021/03/12 01:22:23;;;;;;;4.18;1.20;;;;;;;5.82;100.00;99164.66;5244297;28;20028;-80
2021/03/12 01:24:53;;;;;;;6.05;1.60;;;;;;;5.83;100.00;99168.94;5245880;28;20427;-80
2021/03/12 01:27:23;;;;;;;7.70;1.17;;;;;;;5.90;100.00;99157.41;5243796;28;20055;-80
2021/03/12 01:29:54;;;;;;;4.95;1.20;;;;;;;5.96;100.00;99162.38;5247108;28;20506;-80
2021/03/12 01:32:24;;;;;;;4.60;1.33;;;;;;;5.81;100.00;99162.97;5241507;28;20233;-80
2021/03/12 01:34:54;;;;;;;3.78;1.38;;;;;;;5.72;100.00;99144.31;5245505;28;20024;-80
2021/03/12 01:37:24;;;;;;;8.43;1.35;;;;;;;5.67;100.00;99151.41;5247137;28;20517;-80
2021/03/12 01:39:55;;;;;;;8.80;1.50;;;;;;;5.69;100.00;99147.88;5245752;28;20103;-80
2021/03/12 01:42:26;;;;;;;4.32;1.10;;;;;;;5.76;100.00;99149.31;5245346;28;20098;-80
2021/03/12 01:44:56;;;;;;;5.15;1.40;;;;;;;5.62;100.00;99151.63;5249814;28;20039;-81
2021/03/12 01:47:26;;;;;;;5.82;1.60;;;;;;;5.66;100.00;99141.94;5246148;28;20557;-80
2021/03/12 01:49:57;;;;;;;4.57;1.38;;;;;;;5.79;100.00;99150.97;5238363;28;20060;-80
2021/03/12 01:52:27;;;;;;;4.70;1.33;;;;;;;5.84;100.00;99151.63;5243184;28;20166;-80
2021/03/12 01:54:58;;;;;;;4.72;1.48;;;;;;;5.58;100.00;99149.19;5249253;28;20439;-80
2021/03/12 01:57:28;;;;;;;5.95;1.40;;;;;;;5.48;100.00;99156.47;5240866;28;20524;-80
2021/03/12 01:59:58;;;;;;;8.10;1.92;;;;;;;5.41;100.00;99152.41;5244657;28;20028;-80
2021/03/12 02:02:29;;;;;;;6.53;1.67;;;;;;;5.37;100.00;99155.19;5245694;28;20093;-79
2021/03/12 02:04:59;;;;;;;6.75;1.48;;;;;;;5.68;100.00;99179.88;5245353;28;20027;-78
2021/03/12 02:07:29;;;;;;;6.32;1.45;;;;;;;5.52;100.00;99196.91;5244152;28;20032;-79
2021/03/12 02:09:59;;;;;;;6.10;2.00;;;;;;;5.42;100.00;99205.06;5226694;28;20020;-79
2021/03/12 02:12:37;;;;;;;10.77;2.42;;;;;;;5.27;100.00;99194.41;5245384;28;20035;-80
2021/03/12 02:15:13;;;;;;;6.90;1.52;;;;;;;5.12;100.00;99182.03;5245199;28;20034;-80
2021/03/12 02:18:06;;;;;;;5.97;1.90;;;;;;;5.05;100.00;99207.28;5245059;28;20071;-80
2021/03/12 02:21:15;;;;;;;4.63;1.90;;;;;;;5.04;100.00;99208.19;5245327;28;20187;-78
2021/03/12 02:23:59;;;;;;;5.47;1.63;;;;;;;4.88;100.00;99203.59;5201654;28;20063;-79
2021/03/12 02:26:41;;;;;;;8.10;1.73;;;;;;;4.77;100.00;99201.38;5240273;28;20527;-79
2021/03/12 02:29:24;;;;;;;8.32;1.83;;;;;;;4.86;100.00;99197.63;5248367;28;20048;-79
2021/03/12 02:31:57;;;;;;;4.07;1.55;;;;;;;4.89;100.00;99185.44;5236125;28;20033;-78
2021/03/12 02:34:38;;;;;;;6.78;1.80;;;;;;;4.88;100.00;99191.50;5258937;28;20024;-77
2021/03/12 02:37:10;;;;;;;5.38;1.60;;;;;;;4.94;100.00;99195.63;5223874;28;20057;-78
2021/03/12 02:39:51;;;;;;;6.82;2.00;;;;;;;5.02;100.00;99210.00;5229209;28;20465;-78
2021/03/12 02:42:22;;;;;;;6.32;1.75;;;;;;;5.06;100.00;99216.75;5244124;28;20032;-77
2021/03/12 02:44:55;;;;;;;5.78;2.05;;;;;;;5.16;100.00;99205.16;5244032;28;20137;-79
2021/03/12 02:47:30;;;;;;;5.32;2.10;;;;;;;5.06;100.00;99196.03;5244153;28;20629;-78
2021/03/12 02:50:00;;;;;;;4.57;2.00;;;;;;;5.10;100.00;99207.97;5240145;28;20132;-79
2021/03/12 02:52:31;;;;;;;5.85;2.40;;;;;;;5.11;100.00;99204.47;5244265;28;20159;-77
2021/03/12 02:55:04;;;;;;;9.18;2.60;;;;;;;5.08;100.00;99214.94;5252050;28;20449;-78
2021/03/12 02:57:34;;;;;;;8.80;2.65;;;;;;;5.10;100.00;99233.00;5252309;28;20035;-77
2021/03/12 03:00:07;;;;;;;13.15;3.80;;;;;;;5.17;100.00;99240.50;5265421;28;20024;-80
2021/03/12 03:02:37;;;;;;;10.80;2.97;;;;;;;5.28;100.00;99248.75;5259930;28;20479;-79
2021/03/12 03:05:08;;;;;;;7.63;2.95;;;;;;;5.38;100.00;99233.72;5244872;28;20062;-80
2021/03/12 03:07:41;;;;;;;7.75;3.40;;;;;;;5.42;100.00;99246.50;5243485;28;20025;-79
2021/03/12 03:10:11;;;;;;;7.25;3.33;;;;;;;5.50;100.00;99249.66;5226452;28;20055;-80
2021/03/12 03:12:44;;;;;;;9.07;4.13;;;;;;;5.52;100.00;99250.44;5247563;28;20062;-80
2021/03/12 03:15:16;;;;;;;11.20;4.47;;;;;;;5.53;100.00;99263.34;5247304;28;20024;-80
2021/03/12 03:17:47;;;;;;;8.80;4.57;;;;;;;5.53;100.00;99263.34;5246510;28;20021;-79
2021/03/12 03:20:18;;;;;;;10.98;4.38;;;;;;;5.57;100.00;99262.31;5246866;28;20030;-80
2021/03/12 03:22:48;;;;;;;6.53;3.38;;;;;;;5.51;100.00;99264.28;5246433;28;20031;-79
2021/03/12 03:25:19;;;;;;;5.88;3.08;;;;;;;5.48;100.00;99262.69;5245687;28;20081;-79
2021/03/12 03:27:49;;;;;;;5.78;2.97;;;;;;;5.35;100.00;99265.75;5244697;28;20028;-80
2021/03/12 03:30:21;;;;;;;6.80;3.05;;;;;;;5.50;100.00;99281.59;5244408;28;20440;-80
2021/03/12 03:32:51;;;;;;;4.18;2.80;;;;;;;5.52;100.00;99284.13;5244423;28;20107;-79
2021/03/12 03:35:21;;;;;;;6.78;2.47;;;;;;;5.50;100.00;99284.19;5243992;28;20581;-80
2021/03/12 03:37:52;;;;;;;6.32;2.63;;;;;;;5.46;100.00;99292.13;5243625;28;20114;-79
2021/03/12 03:40:22;;;;;;;6.63;2.90;;;;;;;5.49;100.00;99290.28;5241950;28;20024;-79
2021/03/12 03:42:55;;;;;;;7.07;2.47;;;;;;;5.42;100.00;99290.53;5249465;28;20103;-79
2021/03/12 03:45:27;;;;;;;6.82;2.67;;;;;;;5.61;100.00;99291.56;5249040;28;20028;-79
2021/03/12 03:47:59;;;;;;;7.68;3.05;;;;;;;5.54;100.00;99297.88;5242443;28;20107;-77
2021/03/12 03:50:31;;;;;;;9.02;3.30;;;;;;;5.50;100.00;99298.88;5235698;28;20025;-79
2021/03/12 03:53:03;;;;;;;8.30;3.35;;;;;;;5.35;100.00;99302.00;5256404;28;20043;-77
2021/03/12 03:55:35;;;;;;;8.77;3.35;;;;;;;5.46;100.00;99305.06;5250717;28;20567;-78
2021/03/12 03:58:07;;;;;;;9.13;3.80;;;;;;;5.46;100.00;99307.66;5250778;28;20373;-80
2021/03/12 04:00:38;;;;;;;12.93;3.63;;;;;;;5.45;100.00;99309.44;5251874;28;20107;-78
2021/03/12 04:03:09;;;;;;;10.23;3.00;;;;;;;5.36;100.00;99316.63;5244193;28;20146;-79
2021/03/12 04:05:39;;;;;;;10.77;3.80;;;;;;;5.38;100.00;99320.06;5242511;28;20020;-79
2021/03/12 04:08:10;;;;;;;9.35;3.10;;;;;;;5.34;100.00;99321.03;5247175;28;20466;-78
2021/03/12 04:10:40;;;;;;;7.65;3.45;;;;;;;5.41;100.00;99331.13;5251115;28;20024;-79
2021/03/12 04:13:11;;;;;;;12.27;3.70;;;;;;;5.28;100.00;99341.97;5243148;28;20522;-78
2021/03/12 04:15:42;;;;;;;7.10;3.50;;;;;;;5.38;100.00;99335.59;5225197;28;20117;-77
2021/03/12 04:18:14;;;;;;;9.77;3.50;;;;;;;5.39;100.00;99350.22;5242792;28;20193;-77
2021/03/12 04:20:44;;;;;;;12.68;3.85;;;;;;;5.42;100.00;99344.94;5224713;28;20029;-78
2021/03/12 04:23:16;;;;;;;11.93;4.20;;;;;;;5.50;100.00;99351.53;5224091;28;20032;-77
2021/03/12 04:25:47;;;;;;;10.27;3.65;;;;;;;5.58;100.00;99340.91;5259992;28;20596;-77
2021/03/12 04:28:17;;;;;;;10.50;4.32;;;;;;;5.47;100.00;99362.03;5243286;28;20123;-79
2021/03/12 04:30:48;;;;;;;9.68;3.95;;;;;;;5.47;100.00;99366.34;5245041;28;20512;-78
2021/03/12 04:33:19;;;;;;;11.45;3.90;;;;;;;5.58;100.00;99359.06;5243628;28;20029;-78
2021/03/12 04:35:50;;;;;;;9.68;4.05;;;;;;;5.58;100.00;99361.66;5246570;28;20024;-78
2021/03/12 04:38:22;;;;;;;14.98;4.78;;;;;;;5.59;100.00;99379.72;5239386;28;20028;-79
2021/03/12 04:40:52;;;;;;;15.52;4.82;;;;;;;5.46;100.00;99380.19;5242334;28;20036;-79
2021/03/12 04:43:23;;;;;;;10.35;4.32;;;;;;;5.57;100.00;99375.50;5247185;28;20409;-77
2021/03/12 04:45:54;;;;;;;11.50;4.53;;;;;;;5.52;100.00;99377.38;5228975;28;20028;-78
2021/03/12 04:48:24;;;;;;;10.30;4.70;;;;;;;5.43;100.00;99375.13;5246955;28;20374;-79
2021/03/12 04:50:55;;;;;;;10.05;5.18;;;;;;;5.34;100.00;99383.19;5246497;28;20534;-80
2021/03/12 04:53:29;;;;;;;13.05;5.20;;;;;;;5.34;100.00;99397.91;5245950;28;20025;-78
2021/03/12 04:55:59;;;;;;;13.80;4.60;;;;;;;5.43;100.00;99396.69;5226858;28;20676;-77
2021/03/12 04:58:30;;;;;;;10.73;5.07;;;;;;;5.47;100.00;99394.84;5244896;28;20040;-78
2021/03/12 05:01:00;;;;;;;10.55;5.25;;;;;;;5.56;100.00;99404.91;5246337;28;20482;-78
2021/03/12 05:03:30;;;;;;;9.63;4.47;;;;;;;5.63;100.00;99416.75;5246421;28;20023;-82
2021/03/12 05:06:02;;;;;;;9.45;4.00;;;;;;;5.63;100.00;99411.56;5246924;28;20021;-81
2021/03/12 05:08:34;;;;;;;7.72;3.92;;;;;;;5.71;100.00;99417.34;5237435;28;20036;-78
2021/03/12 05:11:09;;;;;;;8.63;3.75;;;;;;;5.69;100.00;99419.09;5246116;28;20029;-77
2021/03/12 05:13:39;;;;;;;10.67;4.13;;;;;;;5.71;100.00;99422.53;5249863;28;20036;-80
2021/03/12 05:16:09;;;;;;;7.88;3.75;;;;;;;5.75;100.00;99422.34;5242109;28;20266;-80
2021/03/12 05:18:39;;;;;;;9.60;3.55;;;;;;;5.70;100.00;99421.66;5254189;28;20055;-78
2021/03/12 05:21:12;;;;;;;8.93;4.22;;;;;;;5.57;100.00;99420.38;5248314;28;20028;-80
2021/03/12 05:23:42;;;;;;;9.15;3.80;;;;;;;5.52;100.00;99432.66;5257438;28;20020;-78
2021/03/12 05:26:12;;;;;;;8.60;4.40;;;;;;;5.51;100.00;99432.69;5254636;28;20028;-78
2021/03/12 05:28:42;;;;;;;12.95;4.78;;;;;;;5.58;100.00;99434.19;5242963;28;20033;-78
2021/03/12 05:31:13;;;;;;;10.13;4.40;;;;;;;5.53;100.00;99438.66;5254560;28;20024;-78
2021/03/12 05:33:43;;;;;;;7.35;4.72;;;;;;;5.63;100.00;99445.25;5235021;28;20034;-79
2021/03/12 05:36:13;;;;;;;11.05;4.72;;;;;;;5.72;100.00;99458.72;5245450;28;20028;-79
2021/03/12 05:38:44;;;;;;;10.30;4.93;;;;;;;5.64;100.00;99465.06;5245686;28;20351;-79
2021/03/12 05:41:17;;;;;;;14.55;5.22;;;;;;;5.70;100.00;99454.50;5243968;28;20012;-79
2021/03/12 05:43:47;;;;;;;10.85;5.25;;;;;;;5.68;100.00;99469.25;5245429;28;20441;-79
2021/03/12 05:46:18;;;;;;;10.25;4.70;;;;;;;5.67;100.00;99464.97;5252266;28;20066;-79
2021/03/12 05:48:52;;;;;;;10.32;4.43;;;;;;;5.73;100.00;99470.78;5251249;28;20060;-79
2021/03/12 05:51:22;;;;;;;11.45;4.85;;;;;;;5.77;100.00;99480.16;5244394;28;20039;-79
2021/03/12 05:53:54;;;;;;;10.90;3.92;;;;;;;5.75;100.00;99478.53;5246243;28;20022;-79
2021/03/12 05:56:25;;;;;;;12.10;3.53;;;;;;;5.78;100.00;99481.88;5247868;28;20024;-79
2021/03/12 05:58:57;;;;;;;7.72;3.20;;;;;;;5.82;100.00;99487.81;5254996;28;20055;-79
2021/03/12 06:01:30;;;;;;;7.07;2.50;;;;;;;5.74;100.00;99498.41;5245390;28;20561;-79
2021/03/12 06:04:01;;;;;;;5.65;2.80;;;;;;;5.73;100.00;99504.47;5255154;28;20032;-79
2021/03/12 06:06:34;;;;;;;8.40;3.15;;;;;;;5.63;100.00;99505.69;5249564;28;20024;-80
2021/03/12 06:09:05;;;;;;;7.13;2.58;;;;;;;5.55;100.00;99506.84;5246306;28;20028;-77
2021/03/12 06:11:36;;;;;;;6.10;2.63;;;;;;;5.42;100.00;99516.75;5247613;28;20028;-81
2021/03/12 06:14:06;;;;;;;10.25;2.80;;;;;;;5.46;100.00;99522.69;5257498;28;20055;-80
2021/03/12 06:16:36;;;;;;;9.63;3.00;;;;;;;5.58;100.00;99523.13;5252316;28;20028;-80
2021/03/12 06:19:18;;;;;;;7.15;2.65;;;;;;;5.51;100.00;99531.16;5250312;28;20035;-81
2021/03/12 06:21:49;;;;;;;8.98;2.67;;;;;;;5.51;100.00;99544.09;5245302;28;20024;-80
2021/03/12 06:24:26;;;;;;;9.05;2.85;;;;;;;5.56;100.00;99539.63;5228825;28;20043;-80
2021/03/12 06:26:58;;;;;;;5.22;2.08;;;;;;;5.52;100.00;99545.78;5246460;28;20060;-81
2021/03/12 06:29:38;;;;;;;5.63;2.30;;;;;;;5.55;100.00;99551.72;5249255;28;20417;-80
2021/03/12 06:32:09;;;;;;;3.72;1.70;;;;;;;5.48;100.00;99555.44;5253426;28;20031;-80
2021/03/12 06:34:39;;;;;;;4.32;2.20;;;;;;;5.57;100.00;99552.53;5247061;28;20519;-81
2021/03/12 06:37:25;;;;;;;4.13;2.47;;;;;;;5.63;100.00;99567.03;5236950;28;20036;-81
2021/03/12 06:39:56;;;;;;;5.00;2.47;;;;;;;5.63;100.00;99564.44;5248092;28;20017;-81
2021/03/12 06:42:26;;;;;;;6.68;2.80;;;;;;;5.59;100.00;99570.63;5238078;28;20071;-79
2021/03/12 06:45:01;;;;;;;7.90;3.40;;;;;;;5.45;100.00;99576.25;5238698;28;20056;-79
2021/03/12 06:47:32;;;;;;;10.10;3.42;;;;;;;5.58;100.00;99580.13;5245378;28;20051;-80
2021/03/12 06:50:02;;;;;;;11.48;3.83;;;;;;;5.52;100.00;99584.66;5245588;28;20032;-77
2021/03/12 06:52:35;;;;;;;7.60;3.20;;;;;;;5.92;100.00;99579.94;5248864;28;20500;-79
2021/03/12 06:55:06;;;;;;;9.13;3.30;;;;;;;5.98;100.00;99590.09;5249519;28;20031;-81
2021/03/12 06:57:36;;;;;;;8.10;3.35;;;;;;;5.96;100.00;99597.09;5245438;28;20082;-80
2021/03/12 07:00:07;;;;;;;9.30;3.60;;;;;;;6.16;99.66;99598.13;5247471;28;20694;-80
2021/03/12 07:02:38;;;;;;;10.38;3.00;;;;;;;6.23;98.47;99597.00;5247997;28;20036;-80
2021/03/12 07:05:08;;;;;;;9.38;3.13;;;;;;;6.21;97.93;99597.97;5249373;28;20020;-81
2021/03/12 07:07:41;;;;;;;9.90;3.20;;;;;;;6.11;97.82;99612.97;5249800;28;20028;-81
2021/03/12 07:10:12;;;;;;;8.45;2.97;;;;;;;6.03;98.35;99614.13;5254117;28;20078;-80
2021/03/12 07:12:51;;;;;;;9.75;2.97;;;;;;;6.22;98.48;99615.25;5248195;28;20088;-80
2021/03/12 07:15:21;;;;;;;8.75;2.92;;;;;;;6.23;97.73;99622.13;5254804;28;20524;-79
2021/03/12 07:17:51;;;;;;;8.02;2.70;;;;;;;6.42;96.71;99624.03;5255128;28;20028;-81
2021/03/12 07:20:23;;;;;;;7.50;2.90;;;;;;;6.57;97.09;99622.69;5250091;28;20028;-80
2021/03/12 07:22:56;;;;;;;7.50;2.92;;;;;;;6.75;96.63;99627.22;5247633;28;20267;-80
2021/03/12 07:25:29;;;;;;;7.30;2.70;;;;;;;6.69;96.57;99624.81;5248089;28;20031;-81
2021/03/12 07:28:05;;;;;;;6.55;3.15;;;;;;;6.84;97.02;99625.16;5249533;28;20040;-79
2021/03/12 07:30:38;;;;;;;6.88;2.85;;;;;;;7.20;96.36;99630.72;5251458;28;20070;-80
2021/03/12 07:33:09;;;;;;;8.32;2.92;;;;;;;7.63;93.23;99634.25;5250097;28;20024;-80
2021/03/12 07:35:41;;;;;;;6.53;2.90;;;;;;;8.76;87.13;99623.44;5254293;28;20025;-80
2021/03/12 07:38:13;;;;;;;8.20;3.03;;;;;;;9.70;81.83;99628.66;5255575;28;20674;-81
2021/03/12 07:40:44;;;;;;;7.78;2.90;;;;;;;10.46;80.08;99637.09;5233166;28;20035;-81
2021/03/12 07:43:16;;;;;;;7.00;2.70;;;;;;;11.28;77.92;99641.44;5245529;28;20421;-81
2021/03/12 07:45:46;;;;;;;5.88;2.60;;;;;;;11.17;76.96;99637.72;5233942;28;20624;-80
2021/03/12 07:48:17;;;;;;;10.25;2.90;;;;;;;10.52;77.15;99639.44;5225819;28;20039;-81
2021/03/12 07:50:47;;;;;;;8.82;2.90;;;;;;;9.33;81.80;99652.16;5251654;28;20481;-82
2021/03/12 07:53:17;;;;;;;7.90;2.80;;;;;;;8.67;84.07;99664.66;5253642;28;20032;-81
2021/03/12 07:55:50;;;;;;;9.30;3.20;;;;;;;8.50;85.21;99660.19;5248233;28;20633;-80
2021/03/12 07:58:52;;;;;;;7.75;3.00;;;;;;;7.93;88.19;99669.47;5249086;28;20429;-83
2021/03/12 08:01:24;;;;;;;11.70;3.40;;;;;;;8.13;88.64;99667.78;5247220;28;20044;-82
2021/03/12 08:03:54;;;;;;;11.75;4.03;;;;;;;7.95;89.15;99663.31;5248676;28;20028;-81
2021/03/12 08:06:24;;;;;;;9.88;3.60;;;;;;;8.26;87.19;99669.00;5244592;28;20034;-83
2021/03/12 08:08:55;;;;;;;8.90;3.53;;;;;;;8.29;87.96;99666.28;5246095;28;20044;-81
2021/03/12 08:11:34;;;;;;;8.32;3.78;;;;;;;8.33;86.63;99675.66;5247427;28;20365;-79
2021/03/12 08:14:18;;;;;;;9.98;3.92;;;;;;;8.08;88.55;99682.69;5242603;28;20032;-82
2021/03/12 08:16:57;;;;;;;9.30;3.70;;;;;;;8.23;89.57;99684.72;5246486;28;20032;-83
2021/03/12 08:19:32;;;;;;;7.20;3.90;;;;;;;8.69;85.89;99681.09;5240111;28;20139;-81
2021/03/12 08:22:27;;;;;;;8.00;2.93;;;;;;;10.31;79.82;99674.47;5244668;28;20024;-82
2021/03/12 08:24:58;;;;;;;8.55;3.30;;;;;;;10.25;77.67;99675.59;5250458;28;20043;-79
2021/03/12 08:27:45;;;;;;;8.90;3.55;;;;;;;12.13;73.44;99679.53;5236023;28;20028;-81
2021/03/12 08:30:24;;;;;;;9.13;2.97;;;;;;;12.37;71.52;99676.38;5238032;28;20056;-83
2021/03/12 08:32:56;;;;;;;8.00;3.03;;;;;;;12.56;70.86;99681.38;5243262;28;20521;-82
2021/03/12 08:35:38;;;;;;;12.10;3.30;;;;;;;12.56;70.75;99679.63;5240613;28;20078;-83
2021/03/12 08:38:30;;;;;;;8.15;3.38;;;;;;;11.80;70.18;99682.22;5243196;28;20025;-82
2021/03/12 08:41:17;;;;;;;9.75;3.17;;;;;;;11.68;71.76;99677.69;5224185;28;20016;-81
2021/03/12 08:43:53;;;;;;;8.95;3.45;;;;;;;11.31;73.07;99677.91;5252681;28;20604;-82
2021/03/12 08:46:28;;;;;;;8.95;3.78;;;;;;;11.12;74.34;99676.34;5247238;28;20584;-83
2021/03/12 08:49:08;;;;;;;11.10;3.85;;;;;;;10.84;74.95;99683.09;5221316;28;20198;-81
2021/03/12 08:51:39;;;;;;;11.27;3.65;;;;;;;10.22;76.25;99695.78;5262334;28;20029;-81
2021/03/12 08:54:09;;;;;;;13.50;4.13;;;;;;;9.82;76.48;99681.13;5265530;28;20044;-82
2021/03/12 08:56:40;;;;;;;11.98;4.10;;;;;;;9.53;77.78;99684.25;5265231;28;20439;-80
2021/03/12 08:59:11;;;;;;;11.65;4.03;;;;;;;9.72;77.59;99689.44;5265379;28;20024;-83
2021/03/12 09:01:41;;;;;;;13.40;4.00;;;;;;;9.77;75.60;99697.91;5265464;28;20024;-82
2021/03/12 09:04:12;;;;;;;9.52;3.40;;;;;;;10.21;72.02;99689.72;5245617;28;20667;-81
2021/03/12 09:06:43;;;;;;;10.55;3.00;;;;;;;10.66;71.88;99686.63;5244116;28;20046;-81
2021/03/12 09:09:13;;;;;;;11.45;2.90;;;;;;;10.70;70.87;99691.59;5250821;28;20027;-80
2021/03/12 09:11:45;;;;;;;10.15;2.78;;;;;;;10.22;73.88;99703.59;5241665;28;20040;-81
2021/03/12 09:14:15;;;;;;;11.52;2.83;;;;;;;10.38;71.11;99696.72;5242013;28;20083;-81
2021/03/12 09:16:45;;;;;;;10.85;3.13;;;;;;;9.62;72.38;99694.25;5243737;28;20040;-81
2021/03/12 09:19:15;;;;;;;9.30;2.72;;;;;;;10.41;72.37;99691.34;5244945;28;20020;-81
2021/03/12 09:21:46;;;;;;;9.95;2.67;;;;;;;10.23;70.24;99680.06;5247086;28;20040;-83
2021/03/12 09:24:16;;;;;;;7.80;2.58;;;;;;;10.10;72.43;99685.91;5246386;28;20016;-81
2021/03/12 09:26:46;;;;;;;13.02;2.85;;;;;;;9.74;73.82;99682.38;5246463;28;20037;-81
2021/03/12 09:29:16;;;;;;;14.77;3.15;;;;;;;9.93;72.58;99689.31;5246091;28;20024;-81
2021/03/12 09:31:47;;;;;;;12.15;3.20;;;;;;;9.64;72.30;99681.97;5245596;28;20086;-82
2021/03/12 09:34:18;;;;;;;13.00;4.47;;;;;;;9.49;72.88;99687.06;5245799;28;20039;-82
2021/03/12 09:36:50;;;;;;;13.20;3.35;;;;;;;9.80;73.77;99679.53;5246070;28;20101;-84
2021/03/12 09:39:24;;;;;;;11.93;3.85;;;;;;;9.42;72.96;99675.19;5245803;28;20059;-82
2021/03/12 09:42:08;;;;;;;9.18;3.08;;;;;;;9.90;73.78;99685.97;5245227;28;20047;-81
2021/03/12 09:44:39;;;;;;;11.73;3.60;;;;;;;10.16;72.73;99675.19;5234376;28;20039;-81
2021/03/12 09:47:10;;;;;;;10.38;3.85;;;;;;;10.15;73.03;99676.94;5227976;28;20037;-80
2021/03/12 09:49:42;;;;;;;12.70;3.67;;;;;;;10.08;72.59;99679.91;5224974;28;20024;-81
2021/03/12 09:52:15;;;;;;;8.73;3.42;;;;;;;10.11;71.11;99678.00;5238237;28;20561;-83
2021/03/12 09:54:46;;;;;;;13.20;3.53;;;;;;;9.85;71.99;99690.56;5261019;28;20035;-83
2021/03/12 09:57:18;;;;;;;11.20;3.55;;;;;;;9.85;70.23;99675.75;5256084;28;20097;-83
2021/03/12 09:59:50;;;;;;;9.80;3.10;;;;;;;10.16;69.95;99677.81;5250008;28;20033;-83
2021/03/12 10:02:21;;;;;;;8.55;2.97;;;;;;;10.32;71.39;99683.97;5259279;28;20067;-83
2021/03/12 10:05:00;;;;;;;8.43;2.85;;;;;;;10.16;69.72;99680.41;5258040;28;20032;-83
2021/03/12 10:07:38;;;;;;;13.27;3.03;;;;;;;10.32;70.22;99665.69;5251679;28;20067;-83
2021/03/12 10:10:33;;;;;;;12.23;3.35;;;;;;;10.34;70.43;99674.31;5255439;28;20032;-83
2021/03/12 10:13:05;;;;;;;10.85;3.17;;;;;;;10.49;70.90;99673.56;5244022;28;20048;-82
2021/03/12 10:15:40;;;;;;;8.18;2.72;;;;;;;9.90;70.22;99665.97;5255958;28;20024;-82
2021/03/12 10:18:19;;;;;;;8.35;2.72;;;;;;;9.89;71.85;99661.66;5247324;28;20033;-82
2021/03/12 10:20:49;;;;;;;8.38;2.55;;;;;;;9.98;69.97;99665.59;5250246;28;20028;-83
2021/03/12 10:23:20;;;;;;;9.82;2.47;;;;;;;9.90;69.68;99662.50;5245792;28;20029;-81
2021/03/12 10:25:50;;;;;;;10.20;2.50;;;;;;;9.96;70.53;99657.00;5245619;28;20021;-82
2021/03/12 10:28:20;;;;;;;7.85;2.10;;;;;;;10.22;69.53;99651.38;5249460;28;20033;-82
2021/03/12 10:30:58;;;;;;;9.10;2.13;;;;;;;10.42;69.50;99646.88;5245077;28;20037;-82
2021/03/12 10:33:30;;;;;;;9.90;2.20;;;;;;;10.20;69.23;99640.19;5241499;28;20047;-81
2021/03/12 10:36:04;;;;;;;7.90;2.35;;;;;;;10.26;69.17;99651.16;5248949;28;20033;-82
2021/03/12 10:38:35;;;;;;;9.23;2.75;;;;;;;10.16;69.95;99654.31;5244629;28;20039;-82
2021/03/12 10:41:16;;;;;;;7.15;2.30;;;;;;;10.26;68.51;99648.56;5244905;28;20024;-81
2021/03/12 10:44:05;;;;;;;8.85;2.13;;;;;;;10.28;67.80;99641.50;5251906;28;20020;-82
2021/03/12 10:46:35;;;;;;;9.73;2.00;;;;;;;10.22;66.91;99646.16;5249942;28;20071;-82
2021/03/12 10:49:05;;;;;;;10.90;2.15;;;;;;;10.11;67.51;99651.06;5259201;28;20146;-82
2021/03/12 10:51:40;;;;;;;7.78;2.10;;;;;;;10.09;68.87;99647.66;5230719;28;20020;-81
2021/03/12 10:54:13;;;;;;;7.53;1.97;;;;;;;10.14;67.10;99643.09;5251216;28;20048;-81
2021/03/12 10:56:48;;;;;;;9.50;1.88;;;;;;;10.38;67.28;99636.66;5251205;28;20026;-81
2021/03/12 10:59:18;;;;;;;8.50;2.33;;;;;;;10.63;66.54;99644.94;5239763;28;20133;-81
2021/03/12 11:01:49;;;;;;;8.25;1.88;;;;;;;10.44;66.42;99634.59;5246844;28;20092;-83
2021/03/12 11:04:20;;;;;;;7.63;1.90;;;;;;;10.26;65.88;99635.50;5247468;28;20115;-82
2021/03/12 11:06:51;;;;;;;10.07;2.13;;;;;;;10.28;66.85;99624.97;5241642;28;20703;-82
2021/03/12 11:09:21;;;;;;;7.18;1.83;;;;;;;10.45;65.48;99630.19;5247244;28;20044;-82
2021/03/12 11:11:54;;;;;;;8.95;1.75;;;;;;;10.49;65.52;99627.38;5247762;28;20040;-82
2021/03/12 11:14:24;;;;;;;9.40;2.10;;;;;;;10.78;65.51;99612.81;5247455;28;20115;-81
2021/03/12 11:16:54;;;;;;;8.10;1.60;;;;;;;10.81;66.64;99613.50;5244783;28;20115;-81
2021/03/12 11:19:25;;;;;;;7.50;1.73;;;;;;;10.80;64.98;99610.94;5236499;28;20070;-81
2021/03/12 11:21:55;;;;;;;8.15;1.65;;;;;;;10.80;64.85;99603.13;5240230;28;20035;-82
2021/03/12 11:24:26;;;;;;;7.03;1.83;;;;;;;10.85;63.47;99614.19;5243250;28;20438;-82
2021/03/12 11:26:57;;;;;;;7.97;1.50;;;;;;;11.03;63.61;99604.47;5242840;28;20025;-81
2021/03/12 11:29:28;;;;;;;10.43;2.08;;;;;;;11.04;63.98;99610.53;5227269;28;20571;-82
2021/03/12 11:31:59;;;;;;;7.53;1.83;;;;;;;11.02;64.68;99622.00;5228078;28;20649;-82
2021/03/12 11:34:29;;;;;;;11.35;2.38;;;;;;;10.91;65.23;99619.97;5244637;28;20020;-82
2021/03/12 11:37:00;;;;;;;10.18;2.05;;;;;;;10.72;61.38;99623.59;5243778;28;20044;-81
2021/03/12 11:39:30;;;;;;;7.68;1.70;;;;;;;10.87;63.24;99607.13;5245870;28;20397;-82
2021/03/12 11:42:01;;;;;;;7.18;2.00;;;;;;;10.83;62.49;99611.66;5244756;28;20055;-83
2021/03/12 11:44:31;;;;;;;8.65;1.85;;;;;;;11.05;63.04;99607.84;5247278;28;20105;-82
2021/03/12 11:47:02;;;;;;;13.45;2.25;;;;;;;11.33;64.65;99605.44;5244049;28;20024;-82
2021/03/12 11:49:33;;;;;;;9.65;1.90;;;;;;;11.24;61.76;99608.53;5245957;28;20381;-82
2021/03/12 11:52:06;;;;;;;10.93;2.17;;;;;;;10.96;61.09;99609.22;5245018;28;20028;-82
2021/03/12 11:54:37;;;;;;;11.05;2.20;;;;;;;10.87;62.39;99596.66;5247469;28;20031;-82
2021/03/12 11:57:07;;;;;;;7.50;1.67;;;;;;;10.63;61.15;99597.91;5244993;28;20024;-83